sensor_id;sensor_type;location;lat;lon;timestamp;P1;durP1;ratioP1;P2;durP2;ratioP2
6626;SDS011;3349;49.830;8.748;2024-01-11T00:01:33;56.47;;;26.60;;
6626;SDS011;3349;49.830;8.748;2024-01-11T00:04:01;53.30;;;26.17;;
6626;SDS011;3349;49.830;8.748;2024-01-11T00:06:28;50.50;;;24.57;;
6626;SDS011;3349;49.830;8.748;2024-01-11T00:08:55;47.53;;;24.80;;
6626;SDS011;3349;49.830;8.748;2024-01-11T00:11:21;52.63;;;25.63;;
6626;SDS011;3349;49.830;8.748;2024-01-11T00:13:48;54.07;;;25.23;;
6626;SDS011;3349;49.830;8.748;2024-01-11T00:16:15;49.30;;;24.43;;
6626;SDS011;3349;49.830;8.748;2024-01-11T00:18:41;53.33;;;27.10;;
6626;SDS011;3349;49.830;8.748;2024-01-11T00:21:11;57.10;;;27.27;;
6626;SDS011;3349;49.830;8.748;2024-01-11T00:23:37;52.17;;;26.30;;
6626;SDS011;3349;49.830;8.748;2024-01-11T00:26:04;48.80;;;25.03;;
6626;SDS011;3349;49.830;8.748;2024-01-11T00:28:31;50.13;;;25.67;;
6626;SDS011;3349;49.830;8.748;2024-01-11T00:30:57;59.73;;;26.67;;
6626;SDS011;3349;49.830;8.748;2024-01-11T00:33:24;50.93;;;24.83;;
6626;SDS011;3349;49.830;8.748;2024-01-11T00:35:51;56.00;;;25.23;;
6626;SDS011;3349;49.830;8.748;2024-01-11T00:38:19;49.77;;;24.70;;
6626;SDS011;3349;49.830;8.748;2024-01-11T00:40:45;54.50;;;25.03;;
6626;SDS011;3349;49.830;8.748;2024-01-11T00:43:12;45.33;;;24.47;;
6626;SDS011;3349;49.830;8.748;2024-01-11T00:45:39;55.23;;;24.73;;
6626;SDS011;3349;49.830;8.748;2024-01-11T00:48:06;53.43;;;25.97;;
6626;SDS011;3349;49.830;8.748;2024-01-11T00:50:32;52.40;;;25.57;;
6626;SDS011;3349;49.830;8.748;2024-01-11T00:52:59;54.97;;;25.70;;
6626;SDS011;3349;49.830;8.748;2024-01-11T00:55:27;53.37;;;25.50;;
6626;SDS011;3349;49.830;8.748;2024-01-11T00:57:54;52.73;;;25.53;;
6626;SDS011;3349;49.830;8.748;2024-01-11T01:00:20;48.93;;;24.33;;
6626;SDS011;3349;49.830;8.748;2024-01-11T01:02:47;50.03;;;24.47;;
6626;SDS011;3349;49.830;8.748;2024-01-11T01:05:14;49.53;;;24.67;;
6626;SDS011;3349;49.830;8.748;2024-01-11T01:07:40;56.17;;;25.90;;
6626;SDS011;3349;49.830;8.748;2024-01-11T01:10:07;51.27;;;26.43;;
6626;SDS011;3349;49.830;8.748;2024-01-11T01:12:36;54.13;;;25.90;;
6626;SDS011;3349;49.830;8.748;2024-01-11T01:15:02;58.87;;;27.97;;
6626;SDS011;3349;49.830;8.748;2024-01-11T01:17:30;55.53;;;26.33;;
6626;SDS011;3349;49.830;8.748;2024-01-11T01:19:56;59.07;;;26.47;;
6626;SDS011;3349;49.830;8.748;2024-01-11T01:22:23;52.70;;;25.27;;
6626;SDS011;3349;49.830;8.748;2024-01-11T01:24:50;57.73;;;26.90;;
6626;SDS011;3349;49.830;8.748;2024-01-11T01:27:16;54.03;;;26.17;;
6626;SDS011;3349;49.830;8.748;2024-01-11T01:29:44;56.33;;;26.40;;
6626;SDS011;3349;49.830;8.748;2024-01-11T01:32:11;54.87;;;25.93;;
6626;SDS011;3349;49.830;8.748;2024-01-11T01:34:38;58.10;;;26.27;;
6626;SDS011;3349;49.830;8.748;2024-01-11T01:37:05;48.73;;;23.93;;
6626;SDS011;3349;49.830;8.748;2024-01-11T01:39:32;53.47;;;25.23;;
6626;SDS011;3349;49.830;8.748;2024-01-11T01:41:58;50.13;;;24.50;;
6626;SDS011;3349;49.830;8.748;2024-01-11T01:44:25;57.53;;;24.90;;
6626;SDS011;3349;49.830;8.748;2024-01-11T01:46:53;54.33;;;25.93;;
6626;SDS011;3349;49.830;8.748;2024-01-11T01:49:20;57.33;;;26.33;;
6626;SDS011;3349;49.830;8.748;2024-01-11T01:51:47;53.43;;;24.17;;
6626;SDS011;3349;49.830;8.748;2024-01-11T01:54:16;49.00;;;25.43;;
6626;SDS011;3349;49.830;8.748;2024-01-11T01:56:43;50.17;;;24.83;;
6626;SDS011;3349;49.830;8.748;2024-01-11T01:59:10;54.93;;;26.10;;
6626;SDS011;3349;49.830;8.748;2024-01-11T02:01:38;54.17;;;26.57;;
6626;SDS011;3349;49.830;8.748;2024-01-11T02:04:07;56.40;;;26.60;;
6626;SDS011;3349;49.830;8.748;2024-01-11T02:06:34;52.40;;;25.83;;
6626;SDS011;3349;49.830;8.748;2024-01-11T02:09:01;56.37;;;27.30;;
6626;SDS011;3349;49.830;8.748;2024-01-11T02:11:29;57.60;;;26.53;;
6626;SDS011;3349;49.830;8.748;2024-01-11T02:13:56;54.90;;;25.33;;
6626;SDS011;3349;49.830;8.748;2024-01-11T02:16:23;54.37;;;26.00;;
6626;SDS011;3349;49.830;8.748;2024-01-11T02:18:50;57.47;;;25.20;;
6626;SDS011;3349;49.830;8.748;2024-01-11T02:21:18;56.10;;;26.17;;
6626;SDS011;3349;49.830;8.748;2024-01-11T02:23:52;52.07;;;23.90;;
6626;SDS011;3349;49.830;8.748;2024-01-11T02:26:29;53.60;;;26.57;;
6626;SDS011;3349;49.830;8.748;2024-01-11T02:28:55;53.23;;;24.83;;
6626;SDS011;3349;49.830;8.748;2024-01-11T02:31:22;54.23;;;25.33;;
6626;SDS011;3349;49.830;8.748;2024-01-11T02:33:49;55.20;;;25.07;;
6626;SDS011;3349;49.830;8.748;2024-01-11T02:36:17;55.00;;;25.63;;
6626;SDS011;3349;49.830;8.748;2024-01-11T02:38:44;54.93;;;24.87;;
6626;SDS011;3349;49.830;8.748;2024-01-11T02:41:12;45.83;;;23.80;;
6626;SDS011;3349;49.830;8.748;2024-01-11T02:43:45;55.87;;;25.23;;
6626;SDS011;3349;49.830;8.748;2024-01-11T02:46:13;52.53;;;24.90;;
6626;SDS011;3349;49.830;8.748;2024-01-11T02:48:40;51.33;;;24.53;;
6626;SDS011;3349;49.830;8.748;2024-01-11T02:51:07;56.90;;;24.87;;
6626;SDS011;3349;49.830;8.748;2024-01-11T02:53:33;56.37;;;25.03;;
6626;SDS011;3349;49.830;8.748;2024-01-11T02:56:00;53.20;;;25.03;;
6626;SDS011;3349;49.830;8.748;2024-01-11T02:58:28;54.30;;;25.60;;
6626;SDS011;3349;49.830;8.748;2024-01-11T03:00:55;58.40;;;25.80;;
6626;SDS011;3349;49.830;8.748;2024-01-11T03:03:21;52.30;;;24.23;;
6626;SDS011;3349;49.830;8.748;2024-01-11T03:05:48;54.97;;;25.80;;
6626;SDS011;3349;49.830;8.748;2024-01-11T03:08:15;51.60;;;25.23;;
6626;SDS011;3349;49.830;8.748;2024-01-11T03:10:41;52.40;;;24.33;;
6626;SDS011;3349;49.830;8.748;2024-01-11T03:13:08;53.47;;;23.73;;
6626;SDS011;3349;49.830;8.748;2024-01-11T03:15:36;53.67;;;24.57;;
6626;SDS011;3349;49.830;8.748;2024-01-11T03:18:03;52.13;;;25.73;;
6626;SDS011;3349;49.830;8.748;2024-01-11T03:20:29;50.13;;;23.80;;
6626;SDS011;3349;49.830;8.748;2024-01-11T03:22:56;54.63;;;24.97;;
6626;SDS011;3349;49.830;8.748;2024-01-11T03:25:23;50.43;;;25.33;;
6626;SDS011;3349;49.830;8.748;2024-01-11T03:27:49;48.20;;;24.60;;
6626;SDS011;3349;49.830;8.748;2024-01-11T03:30:16;48.73;;;24.90;;
6626;SDS011;3349;49.830;8.748;2024-01-11T03:32:44;50.50;;;24.73;;
6626;SDS011;3349;49.830;8.748;2024-01-11T03:35:11;54.57;;;25.90;;
6626;SDS011;3349;49.830;8.748;2024-01-11T03:37:38;54.70;;;25.60;;
6626;SDS011;3349;49.830;8.748;2024-01-11T03:40:05;52.87;;;24.73;;
6626;SDS011;3349;49.830;8.748;2024-01-11T03:42:32;55.97;;;25.23;;
6626;SDS011;3349;49.830;8.748;2024-01-11T03:44:59;48.07;;;24.57;;
6626;SDS011;3349;49.830;8.748;2024-01-11T03:47:25;60.07;;;26.23;;
6626;SDS011;3349;49.830;8.748;2024-01-11T03:49:53;54.80;;;24.90;;
6626;SDS011;3349;49.830;8.748;2024-01-11T03:52:20;53.80;;;24.27;;
6626;SDS011;3349;49.830;8.748;2024-01-11T03:54:47;53.80;;;25.47;;
6626;SDS011;3349;49.830;8.748;2024-01-11T03:57:13;53.80;;;25.67;;
6626;SDS011;3349;49.830;8.748;2024-01-11T03:59:40;51.53;;;24.27;;
6626;SDS011;3349;49.830;8.748;2024-01-11T04:02:07;52.53;;;24.57;;
6626;SDS011;3349;49.830;8.748;2024-01-11T04:04:34;52.00;;;25.57;;
6626;SDS011;3349;49.830;8.748;2024-01-11T04:07:02;55.83;;;25.50;;
6626;SDS011;3349;49.830;8.748;2024-01-11T04:09:29;54.43;;;25.10;;
6626;SDS011;3349;49.830;8.748;2024-01-11T04:11:55;53.03;;;25.20;;
6626;SDS011;3349;49.830;8.748;2024-01-11T04:14:22;56.70;;;24.80;;
6626;SDS011;3349;49.830;8.748;2024-01-11T04:16:49;55.60;;;26.13;;
6626;SDS011;3349;49.830;8.748;2024-01-11T04:19:15;56.80;;;25.73;;
6626;SDS011;3349;49.830;8.748;2024-01-11T04:21:42;54.00;;;25.23;;
6626;SDS011;3349;49.830;8.748;2024-01-11T04:24:10;50.23;;;25.20;;
6626;SDS011;3349;49.830;8.748;2024-01-11T04:26:37;53.60;;;25.20;;
6626;SDS011;3349;49.830;8.748;2024-01-11T04:29:03;55.30;;;24.37;;
6626;SDS011;3349;49.830;8.748;2024-01-11T04:31:30;59.70;;;26.30;;
6626;SDS011;3349;49.830;8.748;2024-01-11T04:33:58;52.50;;;24.53;;
6626;SDS011;3349;49.830;8.748;2024-01-11T04:36:25;57.10;;;25.80;;
6626;SDS011;3349;49.830;8.748;2024-01-11T04:38:51;54.60;;;25.83;;
6626;SDS011;3349;49.830;8.748;2024-01-11T04:41:19;54.67;;;26.00;;
6626;SDS011;3349;49.830;8.748;2024-01-11T04:43:46;53.67;;;25.53;;
6626;SDS011;3349;49.830;8.748;2024-01-11T04:46:13;52.77;;;25.50;;
6626;SDS011;3349;49.830;8.748;2024-01-11T04:48:41;58.60;;;25.53;;
6626;SDS011;3349;49.830;8.748;2024-01-11T04:51:08;59.03;;;24.83;;
6626;SDS011;3349;49.830;8.748;2024-01-11T04:53:36;56.70;;;26.83;;
6626;SDS011;3349;49.830;8.748;2024-01-11T04:56:04;55.80;;;25.83;;
6626;SDS011;3349;49.830;8.748;2024-01-11T04:58:32;53.93;;;24.80;;
6626;SDS011;3349;49.830;8.748;2024-01-11T05:00:59;50.87;;;24.23;;
6626;SDS011;3349;49.830;8.748;2024-01-11T05:03:26;53.90;;;26.47;;
6626;SDS011;3349;49.830;8.748;2024-01-11T05:05:54;53.90;;;25.53;;
6626;SDS011;3349;49.830;8.748;2024-01-11T05:08:21;50.73;;;24.33;;
6626;SDS011;3349;49.830;8.748;2024-01-11T05:10:48;53.20;;;25.33;;
6626;SDS011;3349;49.830;8.748;2024-01-11T05:13:14;56.30;;;25.50;;
6626;SDS011;3349;49.830;8.748;2024-01-11T05:15:42;53.70;;;24.90;;
6626;SDS011;3349;49.830;8.748;2024-01-11T05:18:09;60.67;;;26.23;;
6626;SDS011;3349;49.830;8.748;2024-01-11T05:20:36;53.93;;;27.13;;
6626;SDS011;3349;49.830;8.748;2024-01-11T05:23:03;55.43;;;26.07;;
6626;SDS011;3349;49.830;8.748;2024-01-11T05:25:30;55.67;;;25.80;;
6626;SDS011;3349;49.830;8.748;2024-01-11T05:27:58;61.70;;;25.57;;
6626;SDS011;3349;49.830;8.748;2024-01-11T05:30:25;55.63;;;26.20;;
6626;SDS011;3349;49.830;8.748;2024-01-11T05:32:53;59.93;;;26.97;;
6626;SDS011;3349;49.830;8.748;2024-01-11T05:35:20;61.00;;;26.50;;
6626;SDS011;3349;49.830;8.748;2024-01-11T05:37:49;59.23;;;25.27;;
6626;SDS011;3349;49.830;8.748;2024-01-11T05:40:15;60.07;;;26.97;;
6626;SDS011;3349;49.830;8.748;2024-01-11T05:42:42;59.13;;;26.37;;
6626;SDS011;3349;49.830;8.748;2024-01-11T05:45:09;57.70;;;26.43;;
6626;SDS011;3349;49.830;8.748;2024-01-11T05:47:36;57.17;;;27.13;;
6626;SDS011;3349;49.830;8.748;2024-01-11T05:50:04;61.23;;;26.27;;
6626;SDS011;3349;49.830;8.748;2024-01-11T05:52:32;58.10;;;26.50;;
6626;SDS011;3349;49.830;8.748;2024-01-11T05:54:58;55.90;;;25.10;;
6626;SDS011;3349;49.830;8.748;2024-01-11T05:57:25;54.83;;;26.43;;
6626;SDS011;3349;49.830;8.748;2024-01-11T05:59:52;52.73;;;25.20;;
6626;SDS011;3349;49.830;8.748;2024-01-11T06:02:18;57.57;;;26.67;;
6626;SDS011;3349;49.830;8.748;2024-01-11T06:04:47;58.10;;;26.43;;
6626;SDS011;3349;49.830;8.748;2024-01-11T06:07:15;64.83;;;28.37;;
6626;SDS011;3349;49.830;8.748;2024-01-11T06:09:42;59.53;;;26.80;;
6626;SDS011;3349;49.830;8.748;2024-01-11T06:12:09;61.60;;;26.93;;
6626;SDS011;3349;49.830;8.748;2024-01-11T06:14:35;62.50;;;28.57;;
6626;SDS011;3349;49.830;8.748;2024-01-11T06:17:02;56.60;;;26.30;;
6626;SDS011;3349;49.830;8.748;2024-01-11T06:19:29;60.53;;;26.20;;
6626;SDS011;3349;49.830;8.748;2024-01-11T06:21:55;57.93;;;25.73;;
6626;SDS011;3349;49.830;8.748;2024-01-11T06:24:23;55.20;;;27.10;;
6626;SDS011;3349;49.830;8.748;2024-01-11T06:26:50;60.03;;;26.40;;
6626;SDS011;3349;49.830;8.748;2024-01-11T06:29:17;52.67;;;25.23;;
6626;SDS011;3349;49.830;8.748;2024-01-11T06:31:43;54.20;;;26.00;;
6626;SDS011;3349;49.830;8.748;2024-01-11T06:34:10;58.70;;;25.37;;
6626;SDS011;3349;49.830;8.748;2024-01-11T06:36:36;54.27;;;25.27;;
6626;SDS011;3349;49.830;8.748;2024-01-11T06:39:03;57.63;;;24.17;;
6626;SDS011;3349;49.830;8.748;2024-01-11T06:41:31;60.20;;;26.70;;
6626;SDS011;3349;49.830;8.748;2024-01-11T06:43:58;53.50;;;24.17;;
6626;SDS011;3349;49.830;8.748;2024-01-11T06:46:25;58.23;;;24.93;;
6626;SDS011;3349;49.830;8.748;2024-01-11T06:48:51;57.57;;;25.83;;
6626;SDS011;3349;49.830;8.748;2024-01-11T06:51:20;53.80;;;27.23;;
6626;SDS011;3349;49.830;8.748;2024-01-11T06:53:47;53.50;;;25.17;;
6626;SDS011;3349;49.830;8.748;2024-01-11T06:56:14;59.27;;;26.83;;
6626;SDS011;3349;49.830;8.748;2024-01-11T06:58:44;52.13;;;25.17;;
6626;SDS011;3349;49.830;8.748;2024-01-11T07:01:11;57.93;;;26.17;;
6626;SDS011;3349;49.830;8.748;2024-01-11T07:03:38;50.93;;;25.17;;
6626;SDS011;3349;49.830;8.748;2024-01-11T07:06:05;54.27;;;26.13;;
6626;SDS011;3349;49.830;8.748;2024-01-11T07:08:32;55.13;;;25.80;;
6626;SDS011;3349;49.830;8.748;2024-01-11T07:10:59;51.17;;;24.77;;
6626;SDS011;3349;49.830;8.748;2024-01-11T07:13:27;60.57;;;26.10;;
6626;SDS011;3349;49.830;8.748;2024-01-11T07:15:55;57.47;;;25.97;;
6626;SDS011;3349;49.830;8.748;2024-01-11T07:18:22;57.60;;;25.87;;
6626;SDS011;3349;49.830;8.748;2024-01-11T07:20:49;58.80;;;24.93;;
6626;SDS011;3349;49.830;8.748;2024-01-11T07:23:16;56.37;;;25.40;;
6626;SDS011;3349;49.830;8.748;2024-01-11T07:25:43;60.37;;;26.73;;
6626;SDS011;3349;49.830;8.748;2024-01-11T07:28:10;54.87;;;26.37;;
6626;SDS011;3349;49.830;8.748;2024-01-11T07:30:36;58.97;;;27.27;;
6626;SDS011;3349;49.830;8.748;2024-01-11T07:33:06;52.00;;;25.53;;
6626;SDS011;3349;49.830;8.748;2024-01-11T07:35:32;57.93;;;26.47;;
6626;SDS011;3349;49.830;8.748;2024-01-11T07:37:59;56.10;;;24.83;;
6626;SDS011;3349;49.830;8.748;2024-01-11T07:40:26;54.90;;;25.57;;
6626;SDS011;3349;49.830;8.748;2024-01-11T07:42:53;60.83;;;25.53;;
6626;SDS011;3349;49.830;8.748;2024-01-11T07:45:20;49.80;;;24.83;;
6626;SDS011;3349;49.830;8.748;2024-01-11T07:47:47;56.43;;;25.70;;
6626;SDS011;3349;49.830;8.748;2024-01-11T07:50:15;58.23;;;27.87;;
6626;SDS011;3349;49.830;8.748;2024-01-11T07:52:42;56.27;;;27.23;;
6626;SDS011;3349;49.830;8.748;2024-01-11T07:55:09;57.33;;;27.13;;
6626;SDS011;3349;49.830;8.748;2024-01-11T07:57:37;55.20;;;27.73;;
6626;SDS011;3349;49.830;8.748;2024-01-11T08:00:05;53.00;;;25.50;;
6626;SDS011;3349;49.830;8.748;2024-01-11T08:02:32;53.33;;;27.10;;
6626;SDS011;3349;49.830;8.748;2024-01-11T08:04:59;61.03;;;28.23;;
6626;SDS011;3349;49.830;8.748;2024-01-11T08:07:27;67.33;;;27.60;;
6626;SDS011;3349;49.830;8.748;2024-01-11T08:09:55;61.07;;;26.83;;
6626;SDS011;3349;49.830;8.748;2024-01-11T08:12:22;59.50;;;29.37;;
6626;SDS011;3349;49.830;8.748;2024-01-11T08:14:48;62.10;;;27.90;;
6626;SDS011;3349;49.830;8.748;2024-01-11T08:17:15;59.37;;;26.37;;
6626;SDS011;3349;49.830;8.748;2024-01-11T08:19:42;55.47;;;27.30;;
6626;SDS011;3349;49.830;8.748;2024-01-11T08:22:09;60.83;;;27.10;;
6626;SDS011;3349;49.830;8.748;2024-01-11T08:24:37;60.57;;;27.10;;
6626;SDS011;3349;49.830;8.748;2024-01-11T08:27:04;55.27;;;26.23;;
6626;SDS011;3349;49.830;8.748;2024-01-11T08:29:31;61.07;;;28.17;;
6626;SDS011;3349;49.830;8.748;2024-01-11T08:31:58;61.30;;;27.63;;
6626;SDS011;3349;49.830;8.748;2024-01-11T08:34:26;62.40;;;27.37;;
6626;SDS011;3349;49.830;8.748;2024-01-11T08:36:53;59.20;;;28.10;;
6626;SDS011;3349;49.830;8.748;2024-01-11T08:39:19;59.60;;;27.33;;
6626;SDS011;3349;49.830;8.748;2024-01-11T08:41:49;62.07;;;27.83;;
6626;SDS011;3349;49.830;8.748;2024-01-11T08:44:17;66.00;;;30.67;;
6626;SDS011;3349;49.830;8.748;2024-01-11T08:46:43;63.47;;;29.23;;
6626;SDS011;3349;49.830;8.748;2024-01-11T08:49:10;64.10;;;30.70;;
6626;SDS011;3349;49.830;8.748;2024-01-11T08:51:37;65.20;;;28.97;;
6626;SDS011;3349;49.830;8.748;2024-01-11T08:54:04;63.83;;;28.73;;
6626;SDS011;3349;49.830;8.748;2024-01-11T08:56:33;54.03;;;29.03;;
6626;SDS011;3349;49.830;8.748;2024-01-11T08:59:02;65.03;;;29.33;;
6626;SDS011;3349;49.830;8.748;2024-01-11T09:01:28;68.30;;;30.97;;
6626;SDS011;3349;49.830;8.748;2024-01-11T09:03:55;65.60;;;29.10;;
6626;SDS011;3349;49.830;8.748;2024-01-11T09:06:23;69.30;;;30.23;;
6626;SDS011;3349;49.830;8.748;2024-01-11T09:08:49;65.67;;;29.90;;
6626;SDS011;3349;49.830;8.748;2024-01-11T09:11:17;64.90;;;31.03;;
6626;SDS011;3349;49.830;8.748;2024-01-11T09:13:44;75.60;;;34.70;;
6626;SDS011;3349;49.830;8.748;2024-01-11T09:16:14;82.40;;;35.03;;
6626;SDS011;3349;49.830;8.748;2024-01-11T09:18:41;73.07;;;32.87;;
6626;SDS011;3349;49.830;8.748;2024-01-11T09:21:08;65.73;;;32.03;;
6626;SDS011;3349;49.830;8.748;2024-01-11T09:23:35;77.63;;;35.93;;
6626;SDS011;3349;49.830;8.748;2024-01-11T09:26:02;79.23;;;36.17;;
6626;SDS011;3349;49.830;8.748;2024-01-11T09:28:29;72.57;;;33.43;;
6626;SDS011;3349;49.830;8.748;2024-01-11T09:30:56;65.20;;;31.47;;
6626;SDS011;3349;49.830;8.748;2024-01-11T09:33:26;67.33;;;30.97;;
6626;SDS011;3349;49.830;8.748;2024-01-11T09:35:53;67.83;;;33.33;;
6626;SDS011;3349;49.830;8.748;2024-01-11T09:38:19;64.53;;;31.37;;
6626;SDS011;3349;49.830;8.748;2024-01-11T09:40:46;61.17;;;32.00;;
6626;SDS011;3349;49.830;8.748;2024-01-11T09:43:18;65.20;;;30.93;;
6626;SDS011;3349;49.830;8.748;2024-01-11T09:45:45;68.53;;;31.90;;
6626;SDS011;3349;49.830;8.748;2024-01-11T09:48:12;71.33;;;30.53;;
6626;SDS011;3349;49.830;8.748;2024-01-11T09:50:40;61.13;;;29.47;;
6626;SDS011;3349;49.830;8.748;2024-01-11T09:53:07;62.70;;;29.70;;
6626;SDS011;3349;49.830;8.748;2024-01-11T09:55:34;78.23;;;35.13;;
6626;SDS011;3349;49.830;8.748;2024-01-11T09:58:01;73.80;;;33.83;;
6626;SDS011;3349;49.830;8.748;2024-01-11T10:00:29;69.23;;;31.73;;
6626;SDS011;3349;49.830;8.748;2024-01-11T10:02:56;67.90;;;31.70;;
6626;SDS011;3349;49.830;8.748;2024-01-11T10:05:23;63.40;;;32.23;;
6626;SDS011;3349;49.830;8.748;2024-01-11T10:07:52;64.37;;;30.07;;
6626;SDS011;3349;49.830;8.748;2024-01-11T10:10:18;63.63;;;30.87;;
6626;SDS011;3349;49.830;8.748;2024-01-11T10:12:46;65.10;;;32.57;;
6626;SDS011;3349;49.830;8.748;2024-01-11T10:15:13;59.27;;;30.90;;
6626;SDS011;3349;49.830;8.748;2024-01-11T10:17:41;61.57;;;29.87;;
6626;SDS011;3349;49.830;8.748;2024-01-11T10:20:09;63.53;;;32.20;;
6626;SDS011;3349;49.830;8.748;2024-01-11T10:22:38;66.70;;;31.27;;
6626;SDS011;3349;49.830;8.748;2024-01-11T10:25:10;64.70;;;32.33;;
6626;SDS011;3349;49.830;8.748;2024-01-11T10:27:39;67.30;;;33.13;;
6626;SDS011;3349;49.830;8.748;2024-01-11T10:30:08;63.47;;;31.60;;
6626;SDS011;3349;49.830;8.748;2024-01-11T10:32:35;65.00;;;32.30;;
6626;SDS011;3349;49.830;8.748;2024-01-11T10:35:02;66.13;;;31.60;;
6626;SDS011;3349;49.830;8.748;2024-01-11T10:37:30;69.73;;;32.93;;
6626;SDS011;3349;49.830;8.748;2024-01-11T10:39:58;72.93;;;34.07;;
6626;SDS011;3349;49.830;8.748;2024-01-11T10:42:31;66.47;;;31.67;;
6626;SDS011;3349;49.830;8.748;2024-01-11T10:45:00;64.03;;;32.30;;
6626;SDS011;3349;49.830;8.748;2024-01-11T10:47:32;66.00;;;33.63;;
6626;SDS011;3349;49.830;8.748;2024-01-11T10:50:02;66.40;;;33.07;;
6626;SDS011;3349;49.830;8.748;2024-01-11T10:52:33;58.80;;;30.50;;
6626;SDS011;3349;49.830;8.748;2024-01-11T10:55:04;61.53;;;31.27;;
6626;SDS011;3349;49.830;8.748;2024-01-11T10:57:33;62.67;;;32.23;;
6626;SDS011;3349;49.830;8.748;2024-01-11T11:00:00;64.53;;;33.13;;
6626;SDS011;3349;49.830;8.748;2024-01-11T11:02:28;68.53;;;34.43;;
6626;SDS011;3349;49.830;8.748;2024-01-11T11:04:57;67.23;;;32.80;;
6626;SDS011;3349;49.830;8.748;2024-01-11T11:07:29;60.57;;;30.97;;
6626;SDS011;3349;49.830;8.748;2024-01-11T11:09:56;61.97;;;31.80;;
6626;SDS011;3349;49.830;8.748;2024-01-11T11:12:24;68.97;;;32.70;;
6626;SDS011;3349;49.830;8.748;2024-01-11T11:14:53;66.43;;;33.00;;
6626;SDS011;3349;49.830;8.748;2024-01-11T11:17:21;67.27;;;33.17;;
6626;SDS011;3349;49.830;8.748;2024-01-11T11:19:48;60.47;;;30.63;;
6626;SDS011;3349;49.830;8.748;2024-01-11T11:22:15;63.17;;;32.03;;
6626;SDS011;3349;49.830;8.748;2024-01-11T11:24:44;62.87;;;33.27;;
6626;SDS011;3349;49.830;8.748;2024-01-11T11:27:12;57.80;;;31.10;;
6626;SDS011;3349;49.830;8.748;2024-01-11T11:29:39;62.67;;;32.37;;
6626;SDS011;3349;49.830;8.748;2024-01-11T11:32:08;68.23;;;33.33;;
6626;SDS011;3349;49.830;8.748;2024-01-11T11:34:40;59.33;;;31.03;;
6626;SDS011;3349;49.830;8.748;2024-01-11T11:37:07;63.97;;;31.77;;
6626;SDS011;3349;49.830;8.748;2024-01-11T11:39:35;61.00;;;31.60;;
6626;SDS011;3349;49.830;8.748;2024-01-11T11:42:02;63.27;;;31.73;;
6626;SDS011;3349;49.830;8.748;2024-01-11T11:44:29;55.20;;;30.93;;
6626;SDS011;3349;49.830;8.748;2024-01-11T11:47:00;63.40;;;32.10;;
6626;SDS011;3349;49.830;8.748;2024-01-11T11:49:52;49.60;;;28.00;;
6626;SDS011;3349;49.830;8.748;2024-01-11T11:52:24;48.23;;;27.53;;
6626;SDS011;3349;49.830;8.748;2024-01-11T11:54:51;52.37;;;27.73;;
6626;SDS011;3349;49.830;8.748;2024-01-11T11:57:19;55.93;;;28.13;;
6626;SDS011;3349;49.830;8.748;2024-01-11T11:59:46;52.27;;;28.90;;
6626;SDS011;3349;49.830;8.748;2024-01-11T12:02:15;55.47;;;29.57;;
6626;SDS011;3349;49.830;8.748;2024-01-11T12:04:47;55.20;;;30.50;;
6626;SDS011;3349;49.830;8.748;2024-01-11T12:07:14;54.00;;;29.40;;
6626;SDS011;3349;49.830;8.748;2024-01-11T12:09:41;55.15;;;28.75;;
6626;SDS011;3349;49.830;8.748;2024-01-11T12:12:08;54.80;;;30.15;;
6626;SDS011;3349;49.830;8.748;2024-01-11T12:14:34;49.63;;;29.50;;
6626;SDS011;3349;49.830;8.748;2024-01-11T12:17:01;51.72;;;30.83;;
6626;SDS011;3349;49.830;8.748;2024-01-11T12:19:28;49.97;;;31.08;;
6626;SDS011;3349;49.830;8.748;2024-01-11T12:21:57;53.83;;;33.03;;
6626;SDS011;3349;49.830;8.748;2024-01-11T12:24:23;53.08;;;35.55;;
6626;SDS011;3349;49.830;8.748;2024-01-11T12:26:50;49.97;;;35.83;;
6626;SDS011;3349;49.830;8.748;2024-01-11T12:29:18;49.75;;;35.97;;
6626;SDS011;3349;49.830;8.748;2024-01-11T12:31:46;52.60;;;38.90;;
6626;SDS011;3349;49.830;8.748;2024-01-11T12:34:13;50.17;;;38.15;;
6626;SDS011;3349;49.830;8.748;2024-01-11T12:36:40;53.30;;;38.60;;
6626;SDS011;3349;49.830;8.748;2024-01-11T12:39:09;49.38;;;38.78;;
6626;SDS011;3349;49.830;8.748;2024-01-11T12:41:38;48.90;;;38.95;;
6626;SDS011;3349;49.830;8.748;2024-01-11T12:44:05;51.95;;;39.28;;
6626;SDS011;3349;49.830;8.748;2024-01-11T12:46:32;52.42;;;41.50;;
6626;SDS011;3349;49.830;8.748;2024-01-11T12:48:59;49.65;;;40.05;;
6626;SDS011;3349;49.830;8.748;2024-01-11T12:51:25;49.80;;;38.75;;
6626;SDS011;3349;49.830;8.748;2024-01-11T12:53:52;54.03;;;41.65;;
6626;SDS011;3349;49.830;8.748;2024-01-11T12:56:21;54.30;;;41.78;;
6626;SDS011;3349;49.830;8.748;2024-01-11T12:58:49;54.58;;;40.90;;
6626;SDS011;3349;49.830;8.748;2024-01-11T13:01:16;51.95;;;39.05;;
6626;SDS011;3349;49.830;8.748;2024-01-11T13:03:44;51.40;;;39.05;;
6626;SDS011;3349;49.830;8.748;2024-01-11T13:06:11;59.28;;;41.35;;
6626;SDS011;3349;49.830;8.748;2024-01-11T13:08:38;55.17;;;38.40;;
6626;SDS011;3349;49.830;8.748;2024-01-11T13:11:06;57.50;;;37.42;;
6626;SDS011;3349;49.830;8.748;2024-01-11T13:13:35;51.97;;;35.10;;
6626;SDS011;3349;49.830;8.748;2024-01-11T13:16:02;61.55;;;37.65;;
6626;SDS011;3349;49.830;8.748;2024-01-11T13:18:31;53.88;;;34.55;;
6626;SDS011;3349;49.830;8.748;2024-01-11T13:20:58;53.35;;;33.42;;
6626;SDS011;3349;49.830;8.748;2024-01-11T13:23:24;56.20;;;34.35;;
6626;SDS011;3349;49.830;8.748;2024-01-11T13:25:51;51.28;;;32.10;;
6626;SDS011;3349;49.830;8.748;2024-01-11T13:28:18;50.78;;;29.90;;
6626;SDS011;3349;49.830;8.748;2024-01-11T13:30:46;53.08;;;30.60;;
6626;SDS011;3349;49.830;8.748;2024-01-11T13:33:14;53.10;;;30.58;;
6626;SDS011;3349;49.830;8.748;2024-01-11T13:35:42;50.58;;;28.65;;
6626;SDS011;3349;49.830;8.748;2024-01-11T13:38:09;55.80;;;31.48;;
6626;SDS011;3349;49.830;8.748;2024-01-11T13:40:36;54.78;;;30.83;;
6626;SDS011;3349;49.830;8.748;2024-01-11T13:43:04;53.85;;;30.83;;
6626;SDS011;3349;49.830;8.748;2024-01-11T13:45:31;52.05;;;30.45;;
6626;SDS011;3349;49.830;8.748;2024-01-11T13:47:59;50.88;;;29.98;;
6626;SDS011;3349;49.830;8.748;2024-01-11T13:50:26;56.67;;;30.52;;
6626;SDS011;3349;49.830;8.748;2024-01-11T13:52:53;51.30;;;28.88;;
6626;SDS011;3349;49.830;8.748;2024-01-11T13:55:19;53.30;;;30.63;;
6626;SDS011;3349;49.830;8.748;2024-01-11T13:57:47;70.22;;;37.00;;
6626;SDS011;3349;49.830;8.748;2024-01-11T14:00:15;58.80;;;30.30;;
6626;SDS011;3349;49.830;8.748;2024-01-11T14:02:43;56.80;;;33.30;;
6626;SDS011;3349;49.830;8.748;2024-01-11T14:05:11;61.85;;;31.08;;
6626;SDS011;3349;49.830;8.748;2024-01-11T14:07:40;56.42;;;31.27;;
6626;SDS011;3349;49.830;8.748;2024-01-11T14:10:07;62.40;;;33.80;;
6626;SDS011;3349;49.830;8.748;2024-01-11T14:12:35;54.70;;;31.75;;
6626;SDS011;3349;49.830;8.748;2024-01-11T14:15:02;50.80;;;30.43;;
6626;SDS011;3349;49.830;8.748;2024-01-11T14:17:31;59.67;;;31.27;;
6626;SDS011;3349;49.830;8.748;2024-01-11T14:19:58;54.20;;;30.20;;
6626;SDS011;3349;49.830;8.748;2024-01-11T14:22:26;61.92;;;31.98;;
6626;SDS011;3349;49.830;8.748;2024-01-11T14:24:53;56.90;;;29.90;;
6626;SDS011;3349;49.830;8.748;2024-01-11T14:27:20;52.23;;;28.77;;
6626;SDS011;3349;49.830;8.748;2024-01-11T14:29:47;57.70;;;28.97;;
6626;SDS011;3349;49.830;8.748;2024-01-11T14:32:14;59.07;;;29.13;;
6626;SDS011;3349;49.830;8.748;2024-01-11T14:34:41;52.27;;;30.50;;
6626;SDS011;3349;49.830;8.748;2024-01-11T14:37:09;57.83;;;31.40;;
6626;SDS011;3349;49.830;8.748;2024-01-11T14:39:37;60.67;;;32.03;;
6626;SDS011;3349;49.830;8.748;2024-01-11T14:42:04;53.90;;;31.93;;
6626;SDS011;3349;49.830;8.748;2024-01-11T14:44:31;55.37;;;30.93;;
6626;SDS011;3349;49.830;8.748;2024-01-11T14:46:57;54.70;;;31.47;;
6626;SDS011;3349;49.830;8.748;2024-01-11T14:49:24;52.93;;;29.27;;